Time;durP1;ratioP1;P1;durP2;ratioP2;P2;SDS_P1;SDS_P2;PMS_P1;PMS_P2;Temp;Humidity;BMP_temperature;BMP_pressure;BME280_temperature;BME280_humidity;BME280_pressure;Samples;Min_cycle;Max_cycle;Signal;HPM_P1;HPM_P2
2024/03/08 00:00:32;;;;;;;41.42;15.55;;;4.00;79.20;;;;;;9176206;19;20010;-67
2024/03/08 00:03:40;;;;;;;30.95;14.50;;;4.00;79.30;;;;;;9174870;19;20018;-67
2024/03/08 00:06:50;;;;;;;35.35;14.27;;;4.00;79.30;;;;;;9174375;19;20022;-68
2024/03/08 00:09:56;;;;;;;34.30;15.65;;;3.90;79.30;;;;;;9174168;19;20047;-67
2024/03/08 00:13:03;;;;;;;34.78;15.55;;;3.90;79.30;;;;;;9174506;19;20467;-67
2024/03/08 00:16:09;;;;;;;39.00;15.85;;;3.90;79.30;;;;;;9175029;19;20025;-67
2024/03/08 00:19:17;;;;;;;36.30;14.70;;;3.90;79.30;;;;;;9174667;19;20014;-67
2024/03/08 00:22:25;;;;;;;38.83;16.05;;;3.90;79.30;;;;;;9173334;19;20100;-67
2024/03/08 00:25:33;;;;;;;33.10;16.23;;;3.80;79.20;;;;;;9175513;19;20699;-67
2024/03/08 00:28:39;;;;;;;36.95;15.13;;;3.80;79.30;;;;;;9173465;19;20078;-67
2024/03/08 00:31:46;;;;;;;34.70;15.73;;;3.80;79.30;;;;;;9173076;19;20015;-68
2024/03/08 00:34:52;;;;;;;33.72;14.60;;;3.80;79.30;;;;;;9174478;19;20066;-67
2024/03/08 00:38:02;;;;;;;36.60;15.50;;;3.70;79.20;;;;;;9173465;19;20018;-67
2024/03/08 00:41:07;;;;;;;42.45;15.70;;;3.70;79.30;;;;;;9170484;19;20019;-67
2024/03/08 00:44:15;;;;;;;38.90;15.50;;;3.70;79.30;;;;;;9174037;19;22034;-67
2024/03/08 00:47:21;;;;;;;32.40;15.63;;;3.70;79.30;;;;;;9173514;19;20360;-67
2024/03/08 00:50:28;;;;;;;37.13;16.05;;;3.70;79.40;;;;;;9172897;19;20610;-67
2024/03/08 00:53:36;;;;;;;35.63;14.88;;;3.70;79.40;;;;;;9174117;19;20025;-67
2024/03/08 00:56:45;;;;;;;36.17;14.80;;;3.60;79.30;;;;;;9173300;19;20175;-67
2024/03/08 00:59:52;;;;;;;41.80;17.50;;;3.60;79.30;;;;;;9175021;19;20018;-67
2024/03/08 01:03:00;;;;;;;33.92;15.23;;;3.60;79.30;;;;;;9171368;19;20018;-67
2024/03/08 01:06:06;;;;;;;35.15;15.60;;;3.60;79.40;;;;;;9173597;19;20018;-67
2024/03/08 01:09:17;;;;;;;41.00;16.83;;;3.60;79.30;;;;;;9171415;19;20014;-67
2024/03/08 01:12:22;;;;;;;35.05;15.98;;;3.60;79.40;;;;;;9173080;19;20630;-67
2024/03/08 01:15:30;;;;;;;36.95;16.50;;;3.60;79.40;;;;;;9173393;19;20021;-67
2024/03/08 01:18:35;;;;;;;39.15;15.43;;;3.60;79.30;;;;;;9172649;19;20014;-67
2024/03/08 01:21:43;;;;;;;35.15;14.88;;;3.60;79.40;;;;;;9179386;19;20021;-67
2024/03/08 01:24:51;;;;;;;37.65;17.08;;;3.50;79.30;;;;;;9182774;19;20018;-67
2024/03/08 01:27:58;;;;;;;35.60;15.45;;;3.50;79.30;;;;;;9180520;19;20018;-67
2024/03/08 01:31:04;;;;;;;36.25;15.27;;;3.50;79.30;;;;;;9183096;19;20018;-67
2024/03/08 01:34:13;;;;;;;37.20;15.38;;;3.50;79.30;;;;;;9181801;19;20372;-67
2024/03/08 01:37:19;;;;;;;34.75;15.45;;;3.50;79.30;;;;;;9180604;19;20364;-67
2024/03/08 01:40:30;;;;;;;33.45;15.15;;;3.50;79.90;;;;;;9177015;19;20451;-68
2024/03/08 01:43:35;;;;;;;34.78;15.98;;;3.50;79.30;;;;;;9181063;19;21287;-69
2024/03/08 01:46:44;;;;;;;36.90;14.93;;;3.50;79.30;;;;;;9181673;19;20021;-69
2024/03/08 01:49:50;;;;;;;37.40;16.70;;;3.50;79.30;;;;;;9178079;19;20578;-68
2024/03/08 01:52:59;;;;;;;35.25;16.35;;;3.40;79.20;;;;;;9180906;19;20014;-69
2024/03/08 01:56:09;;;;;;;36.17;17.45;;;3.40;79.20;;;;;;9180689;19;20014;-68
2024/03/08 01:59:17;;;;;;;35.00;16.98;;;3.40;79.20;;;;;;9177308;19;20491;-69
2024/03/08 02:02:24;;;;;;;29.45;14.50;;;3.40;79.30;;;;;;9180867;19;20039;-68
2024/03/08 02:05:52;;;;;;;39.05;15.90;;;3.40;79.20;;;;;;9179977;19;20532;-68
2024/03/08 02:08:57;;;;;;;38.28;17.35;;;3.30;79.20;;;;;;9178436;19;20048;-68
2024/03/08 02:12:08;;;;;;;35.50;16.45;;;3.30;79.20;;;;;;9180929;19;20384;-68
2024/03/08 02:15:16;;;;;;;39.63;16.88;;;3.30;79.30;;;;;;9180152;19;20014;-67
2024/03/08 02:18:25;;;;;;;34.00;16.73;;;3.30;79.20;;;;;;9181184;19;20015;-68
2024/03/08 02:21:33;;;;;;;41.35;16.48;;;3.30;79.30;;;;;;9179745;19;20022;-69
2024/03/08 02:24:41;;;;;;;37.90;16.73;;;3.20;79.20;;;;;;9179783;19;20029;-69
2024/03/08 02:27:46;;;;;;;37.17;16.95;;;3.20;79.30;;;;;;9179387;19;20018;-68
2024/03/08 02:30:56;;;;;;;35.60;16.90;;;3.20;79.30;;;;;;9178243;19;20033;-68
2024/03/08 02:34:03;;;;;;;31.00;15.77;;;3.20;79.30;;;;;;9176675;19;20498;-68
2024/03/08 02:37:14;;;;;;;43.72;17.50;;;3.10;79.30;;;;;;9177468;19;20496;-68
2024/03/08 02:40:20;;;;;;;42.15;17.45;;;3.20;79.40;;;;;;9175742;19;20014;-69
2024/03/08 02:43:27;;;;;;;39.38;17.73;;;3.20;79.40;;;;;;9178571;19;20036;-68
2024/03/08 02:46:34;;;;;;;35.55;17.00;;;3.10;79.40;;;;;;9177423;19;20523;-69
2024/03/08 02:49:41;;;;;;;33.78;17.05;;;3.10;79.30;;;;;;9174485;19;20023;-68
2024/03/08 02:52:49;;;;;;;37.72;16.25;;;3.10;79.40;;;;;;9177202;19;21593;-69
2024/03/08 02:55:57;;;;;;;39.50;16.75;;;3.10;79.40;;;;;;9172783;19;20480;-68
2024/03/08 02:59:03;;;;;;;43.83;18.83;;;3.10;79.40;;;;;;9177061;19;20014;-68
2024/03/08 03:02:10;;;;;;;41.95;17.77;;;3.10;79.40;;;;;;9176449;19;20500;-69
2024/03/08 03:05:16;;;;;;;38.00;16.92;;;3.10;79.40;;;;;;9176818;19;20009;-68
2024/03/08 03:08:26;;;;;;;40.33;17.65;;;3.10;79.40;;;;;;9175853;19;20015;-69
2024/03/08 03:11:31;;;;;;;44.90;17.83;;;3.10;79.40;;;;;;9176982;19;20538;-68
2024/03/08 03:14:39;;;;;;;37.30;17.77;;;3.10;79.50;;;;;;9176436;19;20025;-69
2024/03/08 03:17:50;;;;;;;35.60;16.90;;;3.10;79.40;;;;;;9176119;19;20022;-69
2024/03/08 03:20:58;;;;;;;47.97;19.40;;;3.10;79.40;;;;;;9175446;19;20026;-69
2024/03/08 03:24:09;;;;;;;42.83;18.65;;;3.10;79.40;;;;;;9173875;19;20018;-68
2024/03/08 03:27:17;;;;;;;41.15;16.55;;;3.10;79.40;;;;;;9176096;19;20499;-68
2024/03/08 03:30:25;;;;;;;41.05;18.05;;;3.00;79.40;;;;;;9173270;19;20029;-68
2024/03/08 03:33:34;;;;;;;36.17;17.10;;;3.00;79.40;;;;;;9176055;19;20025;-67
2024/03/08 03:36:42;;;;;;;38.95;17.55;;;3.00;79.40;;;;;;9175331;19;20030;-67
2024/03/08 03:39:53;;;;;;;36.75;18.60;;;3.00;79.40;;;;;;9169881;19;20018;-67
2024/03/08 03:42:58;;;;;;;37.80;17.92;;;3.00;79.30;;;;;;9172401;19;20010;-67
2024/03/08 03:46:10;;;;;;;39.10;17.60;;;3.00;79.30;;;;;;9174311;19;20015;-67
2024/03/08 03:49:16;;;;;;;37.40;18.15;;;3.00;79.30;;;;;;9173668;19;20018;-67
2024/03/08 03:52:23;;;;;;;39.10;19.17;;;3.10;79.40;;;;;;9172905;19;20022;-67
2024/03/08 03:55:32;;;;;;;36.65;17.65;;;3.10;79.40;;;;;;9174116;19;20014;-67
2024/03/08 03:58:39;;;;;;;35.58;17.88;;;3.00;79.30;;;;;;9173308;19;20022;-67
2024/03/08 04:01:45;;;;;;;36.58;18.00;;;3.00;79.30;;;;;;9173886;19;20014;-67
2024/03/08 04:04:54;;;;;;;39.72;17.70;;;3.00;79.30;;;;;;9173727;19;20506;-67
2024/03/08 04:08:00;;;;;;;35.60;17.52;;;3.00;79.30;;;;;;9173699;19;20010;-67
2024/03/08 04:11:10;;;;;;;41.85;18.25;;;3.00;79.30;;;;;;9172743;19;20022;-67
2024/03/08 04:14:16;;;;;;;39.92;19.00;;;3.00;79.30;;;;;;9174054;19;20472;-67
2024/03/08 04:17:23;;;;;;;38.53;19.83;;;3.00;79.30;;;;;;9174273;19;20017;-67
2024/03/08 04:20:30;;;;;;;34.80;16.27;;;3.00;79.30;;;;;;9173220;19;20035;-67
2024/03/08 04:23:38;;;;;;;40.92;20.15;;;3.00;79.20;;;;;;9173647;19;20460;-67
2024/03/08 04:26:46;;;;;;;41.60;19.70;;;3.00;79.30;;;;;;9173921;19;20014;-67
2024/03/08 04:29:53;;;;;;;38.45;18.83;;;2.90;79.20;;;;;;9172043;19;20122;-67
2024/03/08 04:32:59;;;;;;;41.90;18.88;;;2.90;79.20;;;;;;9173443;19;20055;-67
2024/03/08 04:36:08;;;;;;;41.67;18.38;;;2.90;79.20;;;;;;9173150;19;20019;-67
2024/03/08 04:39:15;;;;;;;43.90;19.48;;;2.90;79.80;;;;;;9166616;19;20011;-67
2024/03/08 04:42:26;;;;;;;38.35;19.63;;;2.90;79.20;;;;;;9173289;19;20037;-67
2024/03/08 04:45:31;;;;;;;39.83;18.70;;;2.90;79.20;;;;;;9172688;19;20026;-67
2024/03/08 04:48:39;;;;;;;37.97;19.27;;;2.90;79.20;;;;;;9172315;19;20019;-68
2024/03/08 04:51:46;;;;;;;41.53;19.10;;;2.90;79.20;;;;;;9172391;19;20010;-68
2024/03/08 04:54:53;;;;;;;37.08;18.88;;;2.90;79.20;;;;;;9173672;19;20034;-68
2024/03/08 04:58:01;;;;;;;40.22;19.25;;;2.90;79.20;;;;;;9181049;19;20050;-68
2024/03/08 05:01:10;;;;;;;43.67;19.02;;;2.80;79.20;;;;;;9180175;19;20372;-69
2024/03/08 05:04:16;;;;;;;36.47;18.92;;;2.90;79.20;;;;;;9181462;19;20011;-68
2024/03/08 05:07:23;;;;;;;41.30;18.48;;;2.90;79.20;;;;;;9181672;19;20025;-68
2024/03/08 05:10:29;;;;;;;41.58;17.95;;;2.80;79.30;;;;;;9179605;19;20025;-68
2024/03/08 05:13:40;;;;;;;40.90;18.67;;;2.90;79.10;;;;;;9180689;19;20021;-68
2024/03/08 05:16:48;;;;;;;38.28;18.80;;;2.80;79.10;;;;;;9180993;19;20014;-68
2024/03/08 05:19:56;;;;;;;40.20;19.55;;;2.80;79.70;;;;;;9180858;19;20023;-68
2024/03/08 05:23:03;;;;;;;41.70;19.63;;;2.80;79.00;;;;;;9178598;19;20043;-68
2024/03/08 05:26:10;;;;;;;40.15;19.10;;;2.80;79.10;;;;;;9179662;19;20015;-69
2024/03/08 05:29:18;;;;;;;47.35;20.08;;;2.80;79.10;;;;;;9178590;19;20467;-68
2024/03/08 05:32:26;;;;;;;40.63;19.17;;;2.80;79.10;;;;;;9179426;19;20056;-68
2024/03/08 05:35:36;;;;;;;36.20;19.45;;;2.80;79.10;;;;;;9178665;19;20010;-68
2024/03/08 05:38:43;;;;;;;36.00;17.92;;;2.80;79.00;;;;;;9174158;19;20019;-68
2024/03/08 05:41:50;;;;;;;35.85;19.48;;;2.80;79.10;;;;;;9181243;19;20356;-68
2024/03/08 05:45:00;;;;;;;43.65;18.30;;;2.70;79.00;;;;;;9181494;19;20011;-68
2024/03/08 05:48:07;;;;;;;37.28;18.52;;;2.70;79.00;;;;;;9181535;19;20077;-68
2024/03/08 05:51:15;;;;;;;38.00;17.88;;;2.70;79.00;;;;;;9179759;19;20014;-68
2024/03/08 05:54:22;;;;;;;41.08;19.38;;;2.70;79.10;;;;;;9180821;19;20018;-68
2024/03/08 05:57:30;;;;;;;35.10;18.55;;;2.70;79.00;;;;;;9181817;19;20033;-68
2024/03/08 06:00:38;;;;;;;40.80;18.98;;;2.60;79.00;;;;;;9180741;19;20027;-68
2024/03/08 06:03:48;;;;;;;43.80;18.92;;;2.60;79.00;;;;;;9181110;19;20754;-68
2024/03/08 06:06:55;;;;;;;37.83;19.33;;;2.60;79.00;;;;;;9179395;19;20495;-68
2024/03/08 06:10:03;;;;;;;40.05;20.00;;;2.60;79.70;;;;;;9179919;19;20026;-68
2024/03/08 06:13:08;;;;;;;43.88;19.95;;;2.60;79.60;;;;;;9180078;19;20007;-68
2024/03/08 06:16:19;;;;;;;42.78;19.55;;;2.50;79.00;;;;;;9179813;19;20014;-68
2024/03/08 06:19:24;;;;;;;44.60;19.67;;;2.50;79.60;;;;;;9179902;19;20441;-68
2024/03/08 06:22:32;;;;;;;40.33;18.98;;;2.50;79.10;;;;;;9180263;19;20019;-68
2024/03/08 06:25:37;;;;;;;41.35;19.25;;;2.50;79.00;;;;;;9180793;19;20031;-68
2024/03/08 06:28:45;;;;;;;45.63;19.73;;;2.50;79.10;;;;;;9180060;19;20894;-69
2024/03/08 06:31:53;;;;;;;42.17;19.55;;;2.50;79.10;;;;;;9177877;19;20014;-69
2024/03/08 06:35:05;;;;;;;47.10;20.35;;;2.50;79.10;;;;;;9180081;19;20025;-68
2024/03/08 06:38:11;;;;;;;48.20;19.90;;;2.50;79.10;;;;;;9176962;19;20030;-69
2024/03/08 06:41:19;;;;;;;36.25;18.38;;;2.50;79.20;;;;;;9178720;19;20021;-68
2024/03/08 06:44:25;;;;;;;45.63;20.42;;;2.50;79.20;;;;;;9178977;19;20017;-68
2024/03/08 06:47:35;;;;;;;48.17;19.70;;;2.50;79.20;;;;;;9177425;19;20022;-67
2024/03/08 06:50:41;;;;;;;46.35;19.67;;;2.50;79.20;;;;;;9176066;19;20038;-67
2024/03/08 06:53:49;;;;;;;42.15;20.15;;;2.50;79.20;;;;;;9178505;19;20015;-67
2024/03/08 06:56:54;;;;;;;37.85;19.60;;;2.50;79.30;;;;;;9179505;19;20022;-67
2024/03/08 07:00:02;;;;;;;50.00;21.02;;;2.50;79.30;;;;;;9178983;19;20022;-67
2024/03/08 07:03:17;;;;;;;42.28;19.35;;;2.50;79.20;;;;;;9177657;19;20849;-67
2024/03/08 07:06:24;;;;;;;41.00;18.85;;;2.60;79.30;;;;;;9177366;19;20011;-67
2024/03/08 07:09:30;;;;;;;45.03;20.42;;;2.60;79.40;;;;;;9177006;19;20022;-67
2024/03/08 07:12:38;;;;;;;45.75;20.90;;;2.60;79.40;;;;;;9175152;19;20018;-67
2024/03/08 07:15:43;;;;;;;40.50;20.30;;;2.70;79.50;;;;;;9177650;19;20364;-68
2024/03/08 07:18:53;;;;;;;44.83;21.10;;;2.70;79.50;;;;;;9174005;19;20025;-68
2024/03/08 07:21:59;;;;;;;47.72;20.13;;;2.70;79.50;;;;;;9176882;19;20722;-68
2024/03/08 07:25:19;;;;;;;47.10;20.75;;;2.80;79.60;;;;;;9176045;19;20014;-68
2024/03/08 07:28:25;;;;;;;43.17;20.63;;;2.90;79.70;;;;;;9177377;19;20025;-68
2024/03/08 07:31:45;;;;;;;44.22;19.95;;;2.90;79.60;;;;;;9175732;19;20522;-69
2024/03/08 07:34:53;;;;;;;39.30;19.48;;;3.00;79.80;;;;;;9175675;19;20443;-68
2024/03/08 07:38:02;;;;;;;40.70;18.80;;;3.10;79.80;;;;;;9174239;19;20023;-68
2024/03/08 07:41:08;;;;;;;45.83;20.55;;;3.20;79.90;;;;;;9170746;19;20026;-68
2024/03/08 07:44:18;;;;;;;46.83;20.88;;;3.30;79.90;;;;;;9176917;19;20021;-68
2024/03/08 07:47:23;;;;;;;45.13;19.45;;;3.40;80.00;;;;;;9176936;19;20014;-68
2024/03/08 07:50:35;;;;;;;43.45;20.25;;;3.50;80.00;;;;;;9177193;19;20025;-68
2024/03/08 07:53:41;;;;;;;37.85;17.58;;;3.60;80.00;;;;;;9176741;19;20014;-68
2024/03/08 07:56:50;;;;;;;40.78;20.17;;;3.70;79.90;;;;;;9176920;19;20018;-68
2024/03/08 07:59:56;;;;;;;47.33;19.42;;;3.80;79.90;;;;;;9176433;19;20490;-68
2024/03/08 08:03:04;;;;;;;43.67;19.40;;;4.00;80.00;;;;;;9176106;19;20018;-69
2024/03/08 08:06:15;;;;;;;40.58;18.92;;;4.10;80.60;;;;;;9174878;19;20002;-68
2024/03/08 08:09:28;;;;;;;46.30;18.65;;;4.20;80.00;;;;;;9175127;19;20019;-69
2024/03/08 08:12:34;;;;;;;47.40;19.38;;;4.30;79.90;;;;;;9174936;19;20053;-69
2024/03/08 08:15:42;;;;;;;42.42;19.30;;;4.40;79.90;;;;;;9175416;19;20010;-68
2024/03/08 08:18:48;;;;;;;37.58;19.25;;;4.60;79.80;;;;;;9175812;19;20687;-69
2024/03/08 08:21:58;;;;;;;37.30;18.38;;;4.60;79.80;;;;;;9174477;19;20034;-69
2024/03/08 08:25:04;;;;;;;43.85;20.13;;;4.80;79.70;;;;;;9175823;19;20017;-69
2024/03/08 08:28:12;;;;;;;42.17;19.85;;;4.90;79.70;;;;;;9174550;19;20368;-69
2024/03/08 08:31:19;;;;;;;38.92;17.83;;;5.00;79.70;;;;;;9173758;19;20038;-69
2024/03/08 08:34:26;;;;;;;39.40;18.98;;;5.20;79.70;;;;;;9174681;19;20049;-69
2024/03/08 08:37:35;;;;;;;42.20;18.65;;;5.30;80.20;;;;;;9173708;19;20476;-69
2024/03/08 08:40:43;;;;;;;40.85;18.60;;;5.40;79.50;;;;;;9170469;19;20015;-69
2024/03/08 08:43:49;;;;;;;40.53;20.17;;;5.50;79.30;;;;;;9174305;19;20512;-69
2024/03/08 08:47:10;;;;;;;40.10;18.38;;;5.60;79.40;;;;;;9174591;19;20380;-69
2024/03/08 08:50:22;;;;;;;39.22;19.25;;;5.80;79.30;;;;;;9174356;19;20010;-70
2024/03/08 08:53:35;;;;;;;39.88;19.52;;;5.90;79.30;;;;;;9171929;19;20022;-70
2024/03/08 08:56:40;;;;;;;36.95;18.27;;;6.00;79.10;;;;;;9175009;19;20007;-69
2024/03/08 08:59:48;;;;;;;41.15;18.92;;;6.10;79.00;;;;;;9174138;19;20352;-70
2024/03/08 09:02:54;;;;;;;37.47;18.75;;;6.20;79.00;;;;;;9173471;19;20015;-69
2024/03/08 09:06:02;;;;;;;35.08;18.27;;;6.40;79.00;;;;;;9174087;19;20022;-70
2024/03/08 09:09:13;;;;;;;42.08;18.73;;;6.40;78.80;;;;;;9173546;19;20018;-69
2024/03/08 09:12:20;;;;;;;34.78;17.42;;;6.50;78.60;;;;;;9173361;19;20483;-68
2024/03/08 09:15:28;;;;;;;39.20;18.90;;;6.60;78.50;;;;;;9173199;19;20015;-68
2024/03/08 09:18:36;;;;;;;40.55;18.40;;;6.70;78.40;;;;;;9172236;19;20086;-68
2024/03/08 09:21:42;;;;;;;31.23;18.05;;;6.80;78.40;;;;;;9170941;19;20392;-68
2024/03/08 09:24:52;;;;;;;36.80;19.17;;;6.90;78.20;;;;;;9172150;19;20014;-69
2024/03/08 09:27:58;;;;;;;37.42;18.92;;;6.90;78.10;;;;;;9170649;19;20615;-69
2024/03/08 09:31:06;;;;;;;38.70;19.52;;;7.00;78.10;;;;;;9171760;19;20010;-69
2024/03/08 09:34:12;;;;;;;37.65;18.45;;;7.10;78.00;;;;;;9168881;19;20112;-69
2024/03/08 09:37:28;;;;;;;37.78;18.23;;;7.20;77.90;;;;;;9170277;19;20018;-68
2024/03/08 09:40:37;;;;;;;41.40;19.05;;;7.40;77.90;;;;;;9167300;19;20011;-67
2024/03/08 09:43:44;;;;;;;36.78;18.85;;;7.40;77.70;;;;;;9181555;19;20015;-67
2024/03/08 09:46:51;;;;;;;42.08;20.40;;;7.50;77.70;;;;;;9181211;19;20014;-71
2024/03/08 09:49:58;;;;;;;38.80;18.58;;;7.70;77.70;;;;;;9180735;19;20019;-69
2024/03/08 09:53:05;;;;;;;40.83;19.42;;;7.80;77.60;;;;;;9180032;19;20007;-69
2024/03/08 09:56:18;;;;;;;37.65;18.48;;;7.90;77.50;;;;;;9181404;19;20018;-69
2024/03/08 09:59:46;;;;;;;39.47;18.27;;;8.00;77.40;;;;;;9180541;19;20007;-69
2024/03/08 10:02:54;;;;;;;37.25;18.92;;;8.10;77.20;;;;;;9179357;19;20549;-69
2024/03/08 10:06:00;;;;;;;37.97;19.80;;;8.10;77.20;;;;;;9178877;19;20523;-64
2024/03/08 10:09:10;;;;;;;40.92;19.40;;;8.20;77.00;;;;;;9177237;19;20026;-63
2024/03/08 10:12:19;;;;;;;36.75;19.10;;;8.30;77.00;;;;;;9178964;19;20029;-64
2024/03/08 10:15:29;;;;;;;34.72;18.42;;;8.40;77.00;;;;;;9180574;19;20017;-63
2024/03/08 10:18:35;;;;;;;38.75;18.63;;;8.50;77.10;;;;;;9180554;19;20054;-64
2024/03/08 10:21:53;;;;;;;35.10;17.48;;;8.60;77.00;;;;;;9180141;19;20034;-64
2024/03/08 10:24:58;;;;;;;36.33;17.35;;;8.60;76.70;;;;;;9177564;19;20022;-64
2024/03/08 10:28:09;;;;;;;39.63;18.42;;;8.70;76.90;;;;;;9180108;19;20029;-63
2024/03/08 10:31:14;;;;;;;33.03;18.45;;;8.80;76.70;;;;;;9180181;19;20029;-64
2024/03/08 10:34:26;;;;;;;37.15;17.75;;;8.90;76.70;;;;;;9177244;19;20025;-61
2024/03/08 10:37:47;;;;;;;34.87;17.97;;;9.00;76.50;;;;;;9177308;19;20015;-63
2024/03/08 10:40:56;;;;;;;35.35;18.48;;;9.10;76.30;;;;;;9175423;19;20014;-63
2024/03/08 10:44:24;;;;;;;36.17;18.65;;;9.10;76.10;;;;;;9177569;19;20023;-63
2024/03/08 10:47:35;;;;;;;38.13;18.60;;;9.20;75.90;;;;;;9178241;19;20021;-63
2024/03/08 10:50:41;;;;;;;33.90;19.23;;;9.30;76.00;;;;;;9178736;19;20018;-62
2024/03/08 10:53:51;;;;;;;35.20;18.58;;;9.30;76.40;;;;;;9177031;19;20026;-64
2024/03/08 10:56:57;;;;;;;36.22;18.08;;;9.50;75.90;;;;;;9178752;19;20464;-63
2024/03/08 11:00:11;;;;;;;36.10;18.35;;;9.50;75.60;;;;;;9177862;19;20891;-66
2024/03/08 11:03:48;;;;;;;33.05;17.83;;;9.60;75.30;;;;;;9177203;19;20443;-65
2024/03/08 11:07:03;;;;;;;38.58;19.20;;;9.60;75.00;;;;;;9178175;19;20022;-63
2024/03/08 11:10:21;;;;;;;34.22;18.65;;;9.70;75.20;;;;;;9177681;19;20015;-64
2024/03/08 11:13:40;;;;;;;33.13;17.85;;;9.70;75.20;;;;;;9177217;19;20025;-64
2024/03/08 11:16:49;;;;;;;34.78;18.33;;;9.80;74.90;;;;;;9178653;19;20018;-63
2024/03/08 11:20:00;;;;;;;40.00;18.50;;;9.80;74.90;;;;;;9176381;19;20018;-62
2024/03/08 11:23:08;;;;;;;40.30;19.95;;;9.90;74.80;;;;;;9177991;19;20022;-64
2024/03/08 11:26:22;;;;;;;35.42;19.15;;;9.90;74.70;;;;;;9177376;19;20085;-64
2024/03/08 11:29:45;;;;;;;42.83;19.23;;;10.00;74.50;;;;;;9177389;19;20022;-63
2024/03/08 11:32:55;;;;;;;35.85;19.17;;;10.00;74.30;;;;;;9177864;19;20021;-63
2024/03/08 11:36:11;;;;;;;34.28;17.77;;;10.00;74.40;;;;;;9174936;19;20006;-63
2024/03/08 11:39:19;;;;;;;40.70;19.58;;;10.10;74.30;;;;;;9169646;19;20491;-63
2024/03/08 11:42:26;;;;;;;32.83;18.05;;;10.10;74.30;;;;;;9176679;19;20017;-63
2024/03/08 11:45:35;;;;;;;35.60;18.65;;;10.20;74.20;;;;;;9175889;19;20014;-64
2024/03/08 11:48:44;;;;;;;36.53;18.42;;;10.30;74.10;;;;;;9175347;19;20014;-64
2024/03/08 11:51:56;;;;;;;35.92;18.25;;;10.40;74.10;;;;;;9174629;19;20018;-64
2024/03/08 11:55:01;;;;;;;37.50;19.15;;;10.40;73.80;;;;;;9174344;19;20019;-63
2024/03/08 11:58:10;;;;;;;35.55;19.80;;;10.50;73.80;;;;;;9175218;19;20025;-63
2024/03/08 12:01:16;;;;;;;36.53;18.95;;;10.50;73.60;;;;;;9175395;19;20062;-63
2024/03/08 12:04:27;;;;;;;38.13;18.88;;;10.60;73.60;;;;;;9173709;19;20356;-62
2024/03/08 12:07:33;;;;;;;41.67;19.45;;;10.60;73.90;;;;;;9175607;19;20019;-63
2024/03/08 12:10:41;;;;;;;37.20;18.88;;;10.70;73.30;;;;;;9174501;19;20014;-63
2024/03/08 12:13:50;;;;;;;33.58;18.70;;;10.70;73.10;;;;;;9175575;19;20010;-64
2024/03/08 12:16:57;;;;;;;35.53;18.73;;;10.70;72.90;;;;;;9172307;19;20293;-64
2024/03/08 12:20:18;;;;;;;34.80;18.48;;;10.70;73.10;;;;;;9174837;19;20018;-64
2024/03/08 12:23:26;;;;;;;32.88;18.70;;;10.80;72.40;;;;;;9174465;19;20491;-64
2024/03/08 12:26:32;;;;;;;40.20;18.48;;;10.80;73.10;;;;;;9174251;19;20010;-65
2024/03/08 12:29:41;;;;;;;35.33;19.17;;;10.80;72.30;;;;;;9175163;19;20010;-65
2024/03/08 12:32:52;;;;;;;34.75;17.38;;;10.80;72.30;;;;;;9172699;19;20089;-66
2024/03/08 12:36:02;;;;;;;33.83;18.95;;;10.80;71.90;;;;;;9170926;19;20774;-67
2024/03/08 12:39:12;;;;;;;33.08;18.02;;;10.80;71.90;;;;;;9168445;19;20007;-65
2024/03/08 12:42:19;;;;;;;37.00;17.35;;;10.80;72.00;;;;;;9172848;19;20031;-65
2024/03/08 12:45:25;;;;;;;33.83;17.63;;;10.80;72.10;;;;;;9174068;19;20370;-65
2024/03/08 12:48:40;;;;;;;33.20;18.02;;;10.90;72.10;;;;;;9173866;19;20029;-65
2024/03/08 12:51:48;;;;;;;29.92;16.08;;;10.90;71.80;;;;;;9174000;19;20018;-66
2024/03/08 12:54:56;;;;;;;30.60;15.77;;;10.90;71.80;;;;;;9172032;19;20029;-66
2024/03/08 12:58:02;;;;;;;29.92;15.50;;;11.00;71.70;;;;;;9174426;19;20050;-66
2024/03/08 13:01:10;;;;;;;24.75;13.57;;;11.00;71.30;;;;;;9171952;19;20359;-65
2024/03/08 13:04:15;;;;;;;30.25;15.15;;;11.00;71.60;;;;;;9172791;19;20022;-66
2024/03/08 13:07:26;;;;;;;27.63;15.13;;;11.00;70.80;;;;;;9173930;19;20025;-67
2024/03/08 13:10:32;;;;;;;27.20;15.20;;;11.10;70.70;;;;;;9173987;19;20082;-66
2024/03/08 13:13:39;;;;;;;32.08;16.00;;;11.10;70.60;;;;;;9171108;19;20352;-65
2024/03/08 13:16:47;;;;;;;32.85;17.35;;;11.00;70.40;;;;;;9179247;19;20756;-67
2024/03/08 13:19:59;;;;;;;36.50;17.63;;;11.00;70.30;;;;;;9182612;19;20022;-66
2024/03/08 13:23:08;;;;;;;33.20;17.67;;;10.90;70.20;;;;;;9182253;19;20014;-66
2024/03/08 13:26:17;;;;;;;32.13;15.50;;;10.90;70.30;;;;;;9181541;19;20017;-66
2024/03/08 13:29:22;;;;;;;27.55;15.65;;;10.90;70.40;;;;;;9182211;19;20018;-67
2024/03/08 13:32:31;;;;;;;26.13;14.80;;;10.80;70.40;;;;;;9181345;19;20359;-65
2024/03/08 13:35:37;;;;;;;29.67;15.80;;;10.80;70.20;;;;;;9180289;19;20006;-66
2024/03/08 13:38:49;;;;;;;27.77;15.32;;;10.80;70.10;;;;;;9174671;19;20026;-65
2024/03/08 13:41:55;;;;;;;27.90;15.75;;;10.80;70.00;;;;;;9181528;19;20014;-67
2024/03/08 13:45:02;;;;;;;29.73;16.27;;;10.80;70.10;;;;;;9182025;19;20018;-66
2024/03/08 13:48:12;;;;;;;31.77;16.58;;;10.80;70.00;;;;;;9182076;19;20014;-66
2024/03/08 13:51:22;;;;;;;28.33;16.45;;;10.80;70.00;;;;;;9180662;19;20014;-66
2024/03/08 13:54:31;;;;;;;28.05;15.90;;;10.70;69.80;;;;;;9179352;19;20021;-66
2024/03/08 13:57:39;;;;;;;31.38;16.30;;;10.70;69.70;;;;;;9180791;19;20368;-67
2024/03/08 14:00:46;;;;;;;32.90;17.83;;;10.70;69.80;;;;;;9181056;19;20018;-66
2024/03/08 14:03:53;;;;;;;34.20;16.92;;;10.70;69.70;;;;;;9181128;19;20022;-66
2024/03/08 14:07:03;;;;;;;34.10;16.95;;;10.70;69.70;;;;;;9180492;19;20367;-67
2024/03/08 14:10:13;;;;;;;33.90;17.38;;;10.70;69.70;;;;;;9178594;19;20025;-66
2024/03/08 14:13:19;;;;;;;31.98;16.77;;;10.60;69.70;;;;;;9180906;19;20604;-66
2024/03/08 14:16:27;;;;;;;28.90;16.48;;;10.70;69.60;;;;;;9177378;19;20010;-65
2024/03/08 14:19:33;;;;;;;32.13;17.35;;;10.70;69.60;;;;;;9180154;19;20013;-66
2024/03/08 14:22:41;;;;;;;31.95;17.40;;;10.70;69.50;;;;;;9180650;19;20029;-65
2024/03/08 14:25:52;;;;;;;33.22;17.77;;;10.70;69.50;;;;;;9180654;19;20010;-65
2024/03/08 14:28:59;;;;;;;31.73;17.92;;;10.60;69.30;;;;;;9177606;19;20499;-65
2024/03/08 14:32:06;;;;;;;37.45;17.08;;;10.60;69.20;;;;;;9179996;19;20014;-64
2024/03/08 14:35:13;;;;;;;28.20;16.45;;;10.60;69.10;;;;;;9179554;19;20014;-65
2024/03/08 14:38:20;;;;;;;36.17;17.25;;;10.60;69.20;;;;;;9173444;19;20013;-65
2024/03/08 14:41:30;;;;;;;29.05;16.50;;;10.60;69.20;;;;;;9179365;19;20472;-65
2024/03/08 14:44:36;;;;;;;34.10;18.15;;;10.50;69.20;;;;;;9178845;19;20411;-65
2024/03/08 14:47:44;;;;;;;35.90;17.92;;;10.50;69.10;;;;;;9178331;19;20030;-65
2024/03/08 14:50:50;;;;;;;37.13;18.27;;;10.50;69.20;;;;;;9178718;19;20047;-64
2024/03/08 14:53:58;;;;;;;30.70;17.33;;;10.50;69.10;;;;;;9179869;19;20019;-65
2024/03/08 14:57:07;;;;;;;28.98;16.92;;;10.50;69.10;;;;;;9176026;19;20018;-65
2024/03/08 15:00:26;;;;;;;31.77;17.15;;;10.50;69.00;;;;;;9178290;19;20022;-65
2024/03/08 15:03:32;;;;;;;34.42;18.13;;;10.40;68.80;;;;;;9177219;19;20019;-65
2024/03/08 15:06:40;;;;;;;34.95;17.52;;;10.40;68.90;;;;;;9175612;19;20454;-67
2024/03/08 15:09:45;;;;;;;33.50;17.60;;;10.40;69.00;;;;;;9178365;19;20022;-66
2024/03/08 15:12:59;;;;;;;34.50;17.88;;;10.40;69.50;;;;;;9177414;19;20006;-66
2024/03/08 15:16:06;;;;;;;34.40;16.92;;;10.30;68.70;;;;;;9177217;19;20589;-66
2024/03/08 15:19:15;;;;;;;31.48;17.17;;;10.30;68.90;;;;;;9176633;19;20478;-66
2024/03/08 15:22:21;;;;;;;31.60;17.25;;;10.30;68.60;;;;;;9177087;19;20090;-65
2024/03/08 15:25:29;;;;;;;32.15;18.15;;;10.30;68.70;;;;;;9177436;19;20011;-65
2024/03/08 15:28:38;;;;;;;30.75;17.38;;;10.20;69.20;;;;;;9177664;19;20474;-65
2024/03/08 15:31:46;;;;;;;31.98;15.82;;;10.20;68.60;;;;;;9177557;19;20376;-65
2024/03/08 15:34:53;;;;;;;33.83;16.30;;;10.20;68.50;;;;;;9177843;19;20026;-65
2024/03/08 15:38:01;;;;;;;31.20;16.95;;;10.20;68.60;;;;;;9174232;19;20014;-65
2024/03/08 15:41:10;;;;;;;29.30;16.38;;;10.20;68.50;;;;;;9170097;19;20496;-65
2024/03/08 15:44:20;;;;;;;30.10;15.77;;;10.10;68.40;;;;;;9176182;19;20018;-65
2024/03/08 15:47:26;;;;;;;31.75;15.55;;;10.10;68.40;;;;;;9175698;19;20011;-65
2024/03/08 15:50:35;;;;;;;32.58;16.13;;;10.10;68.30;;;;;;9175426;19;20025;-65
2024/03/08 15:53:40;;;;;;;33.67;15.70;;;10.10;68.40;;;;;;9176707;19;20021;-65
2024/03/08 15:56:49;;;;;;;31.15;15.55;;;10.10;68.30;;;;;;9175018;19;20017;-65
2024/03/08 16:00:00;;;;;;;31.75;16.25;;;10.10;68.30;;;;;;9175703;19;20018;-67
2024/03/08 16:03:11;;;;;;;32.38;15.35;;;10.10;68.30;;;;;;9173322;19;20017;-66